Airfield :
LOGIN :

Register | Disclaimer

   EN    FR    IT 

 










Legend :    VFR   Marginal VFR   IFR   Intensive IFR   Very Intensive IFR
Visi :
Ceiling :
>= 8 km
>= 3000ft
5 to 8 km
1000 to 3000 ft
1500m to 5 km
500 to 1000 ft
800 to 1500m
200 to 500 ft
< 800m
< 200 ft
Symbols :   Thunderstorms  Fog  Heavy snow  Heavy precipitations  Wind > 20 kt
SIGMETs :     Misc.  Thunderstorms  Icing  Turbulence  Mountain Waves  Volcanic Ashes







- Airport Elevation : 302 ft
- IATA code : CGN


EDDK - Cologne Bonn

CURRENT METAR :
  • 210850Z 31015KT 3500 RADZ BR BKN005 11/11 Q1011 NOSIG

EXPIRED METARs :
  • 210820Z 31016KT 4500 -RADZ BR BKN006 12/11 Q1011 RERA TEMPO 6000
  • 210750Z 30017KT 2500 RADZ BR BKN003 12/11 Q1010 TEMPO BKN006
  • 210720Z 30014KT 3500 -RADZ BR BKN004 12/11 Q1010 TEMPO 2500 RADZ BKN006
  • 210650Z 30015KT 4000 -RADZ BR BKN003 12/11 Q1010 RERA TEMPO 2500 RADZ BKN006
  • 210620Z 31014KT 2200 RADZ BR BKN002 12/11 Q1010 TEMPO BKN006

TAF COR TAF EDDK
Valid from the 21 at 06:00 until the 22 at 12:00 UTC


210536Z 2106/2212 30012KT 4000 BR OVC008
TEMPO 2106/2114 1500 -RADZ BR BKN002
PROB30
TEMPO 2110/2114 6000 SCT008 BKN015
TEMPO 2111/2118 30015G25KT
BECMG 2122/2201 30007KT 6000 BKN012
TEMPO 2201/2207 4000 BR BKN004
BECMG 2207/2210 BKN025
No reported NOTAMs for that airfield.



MET'MAP, your aeronautical weather chart ! - Copyright ORBIFLY December 2007 - Disclaimer

ORBIFLY MET'MAP TEAM :

Programming & Development : Alexandra Zaïnal
Concept & Development : Baudouin d'Aumeries
Co-Development & Prog : Marc-Olivier Méhu
Technical & hardware support : Manuel Goepfert

Contact : metmap@orbifly.com




SOURCES & CREDITS :

   NOAA